createdAt,value
2022-08-04T00:00:09.549Z,21.40
2022-08-04T00:02:48.286Z,21.20
2022-08-04T00:05:27.683Z,21.00
2022-08-04T00:08:06.342Z,20.80
2022-08-04T00:10:35.781Z,20.70
2022-08-04T00:13:08.399Z,21.00
2022-08-04T00:15:38.283Z,21.00
2022-08-04T00:18:09.793Z,20.80
2022-08-04T00:20:41.043Z,21.00
2022-08-04T00:23:09.795Z,21.10
2022-08-04T00:25:40.511Z,21.10
2022-08-04T00:28:10.216Z,21.00
2022-08-04T00:30:38.320Z,21.10
2022-08-04T00:33:06.156Z,21.10
2022-08-04T00:35:34.268Z,21.10
2022-08-04T00:38:02.624Z,20.90
2022-08-04T00:40:37.025Z,20.90
2022-08-04T00:43:20.474Z,20.80
2022-08-04T00:46:21.924Z,20.70
2022-08-04T00:49:09.255Z,20.60
2022-08-04T00:51:47.868Z,20.70
2022-08-04T00:54:44.526Z,20.50
2022-08-04T00:57:34.249Z,20.30
2022-08-04T01:00:10.783Z,20.10
2022-08-04T01:02:48.337Z,19.90
2022-08-04T01:05:22.771Z,19.80
2022-08-04T01:08:11.327Z,19.60
2022-08-04T01:10:55.512Z,19.40
2022-08-04T01:13:40.169Z,19.30
2022-08-04T01:16:11.302Z,19.20
2022-08-04T01:18:52.213Z,19.20
2022-08-04T01:21:51.500Z,19.20
2022-08-04T01:25:04.494Z,19.20
2022-08-04T01:27:50.702Z,19.20
2022-08-04T01:30:20.145Z,19.20
2022-08-04T01:32:53.147Z,19.20
2022-08-04T01:35:47.536Z,19.10
2022-08-04T01:38:24.512Z,18.90
2022-08-04T01:40:54.804Z,18.80
2022-08-04T01:43:23.303Z,18.60
2022-08-04T01:45:59.130Z,18.50
2022-08-04T01:48:28.657Z,18.40
2022-08-04T01:50:59.257Z,18.30
2022-08-04T01:53:32.371Z,18.30
2022-08-04T01:56:02.164Z,18.20
2022-08-04T01:58:31.468Z,18.20
2022-08-04T02:01:06.597Z,18.30
2022-08-04T02:04:19.786Z,18.20
2022-08-04T02:06:41.836Z,18.30
2022-08-04T02:09:17.987Z,18.30
2022-08-04T02:11:50.906Z,18.20
2022-08-04T02:14:40.041Z,18.20
2022-08-04T02:17:12.430Z,18.20
2022-08-04T02:20:00.862Z,18.10
2022-08-04T02:22:29.891Z,18.10
2022-08-04T02:25:05.781Z,18.10
2022-08-04T02:28:00.024Z,18.10
2022-08-04T02:30:35.216Z,18.20
2022-08-04T02:33:08.497Z,18.20
2022-08-04T02:35:39.499Z,18.10
2022-08-04T02:38:25.354Z,18.10
2022-08-04T02:40:59.306Z,18.00
2022-08-04T02:43:51.306Z,17.90
2022-08-04T02:46:19.755Z,17.90
2022-08-04T02:48:50.990Z,17.80
2022-08-04T02:51:23.817Z,17.80
2022-08-04T02:53:54.596Z,17.80
2022-08-04T02:56:24.170Z,17.80
2022-08-04T02:59:00.827Z,17.80
2022-08-04T03:01:28.699Z,17.80
2022-08-04T03:04:28.042Z,17.80
2022-08-04T03:07:20.100Z,17.70
2022-08-04T03:10:16.899Z,17.60
2022-08-04T03:13:18.108Z,17.50
2022-08-04T03:15:56.491Z,17.50
2022-08-04T03:18:52.644Z,17.50
2022-08-04T03:21:47.022Z,17.40
2022-08-04T03:24:49.107Z,17.40
2022-08-04T03:27:54.524Z,17.30
2022-08-04T03:30:37.095Z,17.30
2022-08-04T03:33:49.172Z,17.30
2022-08-04T03:36:49.574Z,17.30
2022-08-04T03:39:50.773Z,17.20
2022-08-04T03:42:54.977Z,17.20
2022-08-04T03:46:08.988Z,17.10
2022-08-04T03:49:09.920Z,17.10
2022-08-04T03:52:06.850Z,17.00
2022-08-04T03:55:01.067Z,17.10
2022-08-04T03:57:48.546Z,17.00
2022-08-04T04:00:19.685Z,17.10
2022-08-04T04:03:12.880Z,17.20
2022-08-04T04:06:22.872Z,17.20
2022-08-04T04:09:16.297Z,17.30
2022-08-04T04:12:15.315Z,17.30
2022-08-04T04:14:59.801Z,17.20
2022-08-04T04:17:53.675Z,17.20
2022-08-04T04:20:50.803Z,17.20
2022-08-04T04:23:31.881Z,17.10
2022-08-04T04:26:16.939Z,17.00
2022-08-04T04:29:03.241Z,17.10
2022-08-04T04:31:42.188Z,17.10
2022-08-04T04:34:21.087Z,17.20
2022-08-04T04:37:04.107Z,17.70
2022-08-04T04:39:41.827Z,18.30
2022-08-04T04:42:33.188Z,18.90
2022-08-04T04:45:13.850Z,19.50
2022-08-04T04:48:09.161Z,20.00
2022-08-04T04:54:44.299Z,20.50
2022-08-04T04:57:17.223Z,20.60
2022-08-04T04:59:50.955Z,20.70
2022-08-04T05:03:00.515Z,21.10
2022-08-04T05:05:39.208Z,21.30
2022-08-04T05:08:47.452Z,21.30
2022-08-04T05:11:49.917Z,21.50
2022-08-04T05:14:38.861Z,21.70
2022-08-04T05:17:18.065Z,22.10
2022-08-04T05:19:54.685Z,21.70
2022-08-04T05:22:29.854Z,22.40
2022-08-04T05:25:04.967Z,22.90
2022-08-04T05:27:40.165Z,23.40
2022-08-04T05:30:11.848Z,23.80
2022-08-04T05:32:46.760Z,23.90
2022-08-04T05:35:49.795Z,24.10
2022-08-04T05:38:11.938Z,24.00
2022-08-04T05:40:40.627Z,24.20
2022-08-04T05:43:08.756Z,25.00
2022-08-04T05:45:39.004Z,24.50
2022-08-04T05:48:09.664Z,24.20
2022-08-04T05:50:39.204Z,24.00
2022-08-04T05:53:09.020Z,23.50
2022-08-04T05:55:49.033Z,23.60
2022-08-04T05:58:26.332Z,23.60
2022-08-04T06:00:56.703Z,23.10
2022-08-04T06:03:26.940Z,23.60
2022-08-04T06:05:56.964Z,24.00
2022-08-04T06:08:25.153Z,24.50
2022-08-04T06:10:54.309Z,24.90
2022-08-04T06:13:48.824Z,25.20
2022-08-04T06:16:30.339Z,25.90
2022-08-04T06:20:01.808Z,26.50
2022-08-04T06:21:51.927Z,27.00
2022-08-04T06:24:23.146Z,27.10
2022-08-04T06:26:52.499Z,26.60
2022-08-04T06:29:26.603Z,26.50
2022-08-04T06:32:30.199Z,27.30
2022-08-04T06:34:48.490Z,27.90
2022-08-04T06:37:43.719Z,27.90
2022-08-04T06:40:29.571Z,27.60
2022-08-04T06:42:59.300Z,27.70
2022-08-04T06:45:28.188Z,27.00
2022-08-04T06:48:01.366Z,26.90
2022-08-04T06:51:24.726Z,26.80
2022-08-04T06:53:18.958Z,27.50
2022-08-04T06:55:48.830Z,27.70
2022-08-04T06:58:18.118Z,28.40
2022-08-04T07:00:48.233Z,29.40
2022-08-04T07:03:19.012Z,29.30
2022-08-04T07:05:48.248Z,29.70
2022-08-04T07:08:16.555Z,29.90
2022-08-04T07:10:46.406Z,29.80
2022-08-04T07:13:15.376Z,30.10
2022-08-04T07:15:45.698Z,30.30
2022-08-04T07:18:13.643Z,30.60
2022-08-04T07:20:43.978Z,30.50
2022-08-04T07:23:17.155Z,30.90
2022-08-04T07:25:59.423Z,31.30
2022-08-04T07:28:34.708Z,30.80
2022-08-04T07:31:04.196Z,30.20
2022-08-04T07:33:32.593Z,30.20
2022-08-04T07:36:09.346Z,31.00
2022-08-04T07:38:48.071Z,31.60
2022-08-04T07:41:38.518Z,32.10
2022-08-04T07:44:07.846Z,32.40
2022-08-04T07:46:36.125Z,32.20
2022-08-04T07:49:06.484Z,32.80
2022-08-04T07:51:37.868Z,33.00
2022-08-04T07:54:07.765Z,33.20
2022-08-04T07:56:37.580Z,32.50
2022-08-04T07:59:06.613Z,32.50
2022-08-04T08:01:36.995Z,32.70
2022-08-04T08:04:08.518Z,32.00
2022-08-04T08:06:43.090Z,31.80
2022-08-04T08:09:14.537Z,31.90
2022-08-04T08:12:37.643Z,32.80
2022-08-04T08:14:32.497Z,32.90
2022-08-04T08:17:02.363Z,33.40
2022-08-04T08:19:30.968Z,32.90
2022-08-04T08:22:01.608Z,32.70
2022-08-04T08:24:30.987Z,32.50
2022-08-04T08:27:00.516Z,31.90
2022-08-04T08:29:29.896Z,32.80
2022-08-04T08:32:02.677Z,32.80
2022-08-04T08:34:35.046Z,32.80
2022-08-04T08:37:13.447Z,32.90
2022-08-04T08:39:46.718Z,32.50
2022-08-04T08:42:55.874Z,32.10
2022-08-04T08:45:48.401Z,33.10
2022-08-04T08:48:47.173Z,33.10
2022-08-04T08:51:43.697Z,33.50
2022-08-04T08:54:41.498Z,33.90
2022-08-04T08:57:23.671Z,33.50
2022-08-04T09:00:02.842Z,34.00
2022-08-04T09:03:18.229Z,33.40
2022-08-04T09:06:25.193Z,34.90
2022-08-04T09:09:12.090Z,34.00
2022-08-04T09:11:57.024Z,34.00
2022-08-04T09:14:35.855Z,33.90
2022-08-04T09:17:07.566Z,33.70
2022-08-04T09:19:45.882Z,33.80
2022-08-04T09:22:21.519Z,34.30
2022-08-04T09:24:55.236Z,34.50
2022-08-04T09:27:31.936Z,35.10
2022-08-04T09:30:05.664Z,34.80
2022-08-04T09:32:42.123Z,34.20
2022-08-04T09:35:20.434Z,34.60
2022-08-04T09:38:00.947Z,34.20
2022-08-04T09:40:52.756Z,33.70
2022-08-04T09:43:59.345Z,33.40
2022-08-04T09:46:28.800Z,34.10
2022-08-04T09:49:02.548Z,34.50
2022-08-04T09:51:58.472Z,34.50
2022-08-04T09:54:33.149Z,34.20
2022-08-04T09:57:08.987Z,34.60
2022-08-04T09:59:58.171Z,35.10
2022-08-04T10:02:28.640Z,34.40
2022-08-04T10:04:58.159Z,34.10
2022-08-04T10:08:04.765Z,34.10
2022-08-04T10:10:53.326Z,34.60
2022-08-04T10:13:35.048Z,34.60
2022-08-04T10:16:21.554Z,34.20
2022-08-04T10:19:08.219Z,34.80
2022-08-04T10:21:59.457Z,35.00
2022-08-04T10:24:46.368Z,35.00
2022-08-04T10:27:20.885Z,35.20
2022-08-04T10:29:49.766Z,35.10
2022-08-04T10:32:25.258Z,35.60
2022-08-04T10:35:03.656Z,35.20
2022-08-04T10:37:59.095Z,35.60
2022-08-04T10:40:45.126Z,35.50
2022-08-04T10:43:26.853Z,35.30
2022-08-04T10:46:09.658Z,35.70
2022-08-04T10:48:45.871Z,35.30
2022-08-04T10:51:22.750Z,35.70
2022-08-04T10:53:55.349Z,35.70
2022-08-04T10:56:36.007Z,35.40
2022-08-04T10:59:08.126Z,35.70
2022-08-04T11:02:01.914Z,35.40
2022-08-04T11:04:38.769Z,35.30
2022-08-04T11:07:07.260Z,35.10
2022-08-04T11:09:36.303Z,35.20
2022-08-04T11:12:10.837Z,35.20
2022-08-04T11:14:42.188Z,35.80
2022-08-04T11:17:16.687Z,36.10
2022-08-04T11:19:57.601Z,35.40
2022-08-04T11:22:42.647Z,35.40
2022-08-04T11:25:23.313Z,35.20
2022-08-04T11:28:02.638Z,35.40
2022-08-04T11:30:35.966Z,35.80
2022-08-04T11:33:10.355Z,35.30
2022-08-04T11:35:53.990Z,35.50
2022-08-04T11:38:32.172Z,35.20
2022-08-04T11:41:06.460Z,35.50
2022-08-04T11:43:56.183Z,35.40
2022-08-04T11:46:36.955Z,35.30
2022-08-04T11:49:09.234Z,35.10
2022-08-04T11:51:39.571Z,35.10
2022-08-04T11:54:07.672Z,35.30
2022-08-04T11:56:38.014Z,35.40
2022-08-04T11:59:08.579Z,35.40
2022-08-04T12:01:47.370Z,35.70
2022-08-04T12:04:19.667Z,36.00
2022-08-04T12:07:15.115Z,36.10
2022-08-04T12:09:49.614Z,36.30
2022-08-04T12:12:25.943Z,35.90
2022-08-04T12:15:00.635Z,35.90
2022-08-04T12:17:52.447Z,36.10
2022-08-04T12:20:31.461Z,35.70
2022-08-04T12:23:14.898Z,35.40
2022-08-04T12:25:48.304Z,35.80
2022-08-04T12:28:23.391Z,35.70
2022-08-04T12:31:04.335Z,35.90
2022-08-04T12:34:05.371Z,35.70
2022-08-04T12:36:34.634Z,36.20
2022-08-04T12:39:10.419Z,36.60
2022-08-04T12:41:43.353Z,36.50
2022-08-04T12:44:36.513Z,36.20
2022-08-04T12:47:25.801Z,35.70
2022-08-04T12:50:00.441Z,35.90
2022-08-04T12:55:23.870Z,36.60
2022-08-04T12:57:53.074Z,36.70
2022-08-04T13:00:34.284Z,36.90
2022-08-04T13:03:09.712Z,37.10
2022-08-04T13:05:40.674Z,36.10
2022-08-04T13:08:10.424Z,36.20
2022-08-04T13:10:41.810Z,36.10
2022-08-04T13:13:17.067Z,36.00
2022-08-04T13:15:56.660Z,35.90
2022-08-04T13:18:30.075Z,36.10
2022-08-04T13:21:19.754Z,35.90
2022-08-04T13:24:10.631Z,34.90
2022-08-04T13:26:55.529Z,35.30
2022-08-04T13:30:00.154Z,35.90
2022-08-04T13:32:20.233Z,35.90
2022-08-04T13:34:52.683Z,35.10
2022-08-04T13:37:24.197Z,34.80
2022-08-04T13:39:55.941Z,35.30
2022-08-04T13:42:27.751Z,35.80
2022-08-04T13:44:58.568Z,36.20
2022-08-04T13:47:30.056Z,36.30
2022-08-04T13:50:12.136Z,36.30
2022-08-04T13:52:41.743Z,36.30
2022-08-04T13:55:10.222Z,36.30
2022-08-04T13:57:48.085Z,35.80
2022-08-04T14:00:17.004Z,36.20
2022-08-04T14:03:02.454Z,36.30
2022-08-04T14:05:58.717Z,36.00
2022-08-04T14:08:24.492Z,35.90
2022-08-04T14:10:56.318Z,35.80
2022-08-04T14:13:41.592Z,35.80
2022-08-04T14:16:18.474Z,35.70
2022-08-04T14:18:46.762Z,36.00
2022-08-04T14:21:16.566Z,36.00
2022-08-04T14:23:50.619Z,36.10
2022-08-04T14:26:31.541Z,36.50
2022-08-04T14:29:26.883Z,36.50
2022-08-04T14:32:21.424Z,36.00
2022-08-04T14:34:50.790Z,36.10
2022-08-04T14:37:22.482Z,36.10
2022-08-04T14:40:07.824Z,35.80
2022-08-04T14:42:54.515Z,35.40
2022-08-04T14:45:35.667Z,35.20
2022-08-04T14:48:09.571Z,35.60
2022-08-04T14:50:39.982Z,35.70
2022-08-04T14:53:10.005Z,35.80
2022-08-04T14:55:39.196Z,36.30
2022-08-04T14:58:34.255Z,36.20
2022-08-04T15:00:59.505Z,35.30
2022-08-04T15:03:28.596Z,34.70
2022-08-04T15:06:05.344Z,34.30
2022-08-04T15:08:35.179Z,34.30
2022-08-04T15:11:03.798Z,34.50
2022-08-04T15:13:33.224Z,34.90
2022-08-04T15:16:07.540Z,35.10
2022-08-04T15:18:37.534Z,35.00
2022-08-04T15:21:07.595Z,34.90
2022-08-04T15:23:39.514Z,34.80
2022-08-04T15:26:11.808Z,35.30
2022-08-04T15:28:42.153Z,35.50
2022-08-04T15:32:07.281Z,35.80
2022-08-04T15:34:00.558Z,36.10
2022-08-04T15:36:36.926Z,36.00
2022-08-04T15:39:11.571Z,35.80
2022-08-04T15:41:55.170Z,35.60
2022-08-04T15:44:58.704Z,35.70
2022-08-04T15:47:28.182Z,35.70
2022-08-04T15:50:08.776Z,35.10
2022-08-04T15:53:10.590Z,34.90
2022-08-04T15:55:42.893Z,34.70
2022-08-04T15:58:12.354Z,34.60
2022-08-04T16:01:13.605Z,34.60
2022-08-04T16:03:53.173Z,34.50
2022-08-04T16:06:45.174Z,34.40
2022-08-04T16:09:45.945Z,34.30
2022-08-04T16:12:55.060Z,34.30
2022-08-04T16:15:40.700Z,34.50
2022-08-04T16:18:25.325Z,34.60
2022-08-04T16:20:57.685Z,34.70
2022-08-04T16:24:02.067Z,34.90
2022-08-04T16:26:56.499Z,35.10
2022-08-04T16:29:34.025Z,35.10
2022-08-04T16:32:23.639Z,35.20
2022-08-04T16:34:59.621Z,35.20
2022-08-04T16:37:34.731Z,35.10
2022-08-04T16:40:29.752Z,34.90
2022-08-04T16:43:03.983Z,34.80
2022-08-04T16:45:45.660Z,35.00
2022-08-04T16:48:14.579Z,35.10
2022-08-04T16:50:55.502Z,35.20
2022-08-04T16:54:02.998Z,35.20
2022-08-04T16:56:17.285Z,35.10
2022-08-04T16:58:53.033Z,35.00
2022-08-04T17:01:32.427Z,34.90
2022-08-04T17:04:05.847Z,34.80
2022-08-04T17:06:35.966Z,34.80
2022-08-04T17:09:08.131Z,34.80
2022-08-04T17:11:36.132Z,34.80
2022-08-04T17:14:06.158Z,34.80
2022-08-04T17:16:36.642Z,34.70
2022-08-04T17:19:06.188Z,34.50
2022-08-04T17:21:36.484Z,34.40
2022-08-04T17:24:14.403Z,34.50
2022-08-04T17:26:54.045Z,34.40
2022-08-04T17:29:44.030Z,34.10
2022-08-04T17:32:17.145Z,33.90
2022-08-04T17:34:48.940Z,33.60
2022-08-04T17:37:53.103Z,33.50
2022-08-04T17:40:13.342Z,33.50
2022-08-04T17:42:42.362Z,33.50
2022-08-04T17:45:51.334Z,33.40
2022-08-04T17:48:09.333Z,33.30
2022-08-04T17:50:43.505Z,33.30
2022-08-04T17:53:13.262Z,33.30
2022-08-04T17:55:46.844Z,33.20
2022-08-04T17:58:21.384Z,33.20
2022-08-04T18:01:22.724Z,33.30
2022-08-04T18:03:51.720Z,33.20
2022-08-04T18:06:21.605Z,33.20
2022-08-04T18:08:53.453Z,33.10
2022-08-04T18:11:29.834Z,33.00
2022-08-04T18:14:10.600Z,33.10
2022-08-04T18:16:44.589Z,33.10
2022-08-04T18:19:14.439Z,33.00
2022-08-04T18:21:45.769Z,32.60
2022-08-04T18:24:34.309Z,32.20
2022-08-04T18:27:17.187Z,31.90
2022-08-04T18:30:14.519Z,31.60
2022-08-04T18:32:34.266Z,31.40
2022-08-04T18:35:05.697Z,31.30
2022-08-04T18:40:31.168Z,31.10
2022-08-04T18:43:08.301Z,30.90
2022-08-04T18:45:51.243Z,30.80
2022-08-04T18:48:19.498Z,30.50
2022-08-04T18:51:10.660Z,30.20
2022-08-04T18:53:36.125Z,30.00
2022-08-04T18:56:06.278Z,29.70
2022-08-04T18:58:45.298Z,29.30
2022-08-04T19:01:14.188Z,29.00
2022-08-04T19:03:44.174Z,28.70
2022-08-04T19:06:13.774Z,28.60
2022-08-04T19:08:45.344Z,28.40
2022-08-04T19:11:37.447Z,28.30
2022-08-04T19:14:03.698Z,28.00
2022-08-04T19:16:34.095Z,27.80
2022-08-04T19:19:05.584Z,27.60
2022-08-04T19:21:59.801Z,27.50
2022-08-04T19:24:31.813Z,27.40
2022-08-04T19:27:02.244Z,27.20
2022-08-04T19:32:25.516Z,27.00
2022-08-04T19:34:54.695Z,26.90
2022-08-04T19:37:57.098Z,26.90
2022-08-04T19:40:13.389Z,26.80
2022-08-04T19:42:43.371Z,26.60
2022-08-04T19:45:15.921Z,26.60
2022-08-04T19:48:21.145Z,26.50
2022-08-04T19:50:32.146Z,26.40
2022-08-04T19:53:01.508Z,26.30
2022-08-04T19:55:37.347Z,26.10
2022-08-04T19:58:08.558Z,26.10
2022-08-04T20:00:39.193Z,26.00
2022-08-04T20:03:09.868Z,26.00
2022-08-04T20:08:28.581Z,26.20
2022-08-04T20:10:56.454Z,26.40
2022-08-04T20:16:29.233Z,26.10
2022-08-04T20:19:03.156Z,25.70
2022-08-04T20:21:54.379Z,25.40
2022-08-04T20:24:39.482Z,25.20
2022-08-04T20:27:14.730Z,25.00
2022-08-04T20:29:48.729Z,25.00
2022-08-04T20:32:20.168Z,25.00
2022-08-04T20:34:51.449Z,25.10
2022-08-04T20:37:20.668Z,25.30
2022-08-04T20:42:36.524Z,25.30
2022-08-04T20:45:05.049Z,24.90
2022-08-04T20:47:35.623Z,24.50
2022-08-04T20:50:05.443Z,24.40
2022-08-04T20:52:37.686Z,24.60
2022-08-04T20:55:07.068Z,24.60
2022-08-04T20:57:48.813Z,24.60
2022-08-04T21:00:26.264Z,24.70
2022-08-04T21:02:59.482Z,24.60
2022-08-04T21:05:27.358Z,24.40
2022-08-04T21:07:56.746Z,24.50
2022-08-04T21:10:24.943Z,24.20
2022-08-04T21:12:53.690Z,24.00
2022-08-04T21:15:25.613Z,24.10
2022-08-04T21:17:58.244Z,24.00
2022-08-04T21:20:33.555Z,24.00
2022-08-04T21:23:05.099Z,24.10
2022-08-04T21:25:42.503Z,24.20
2022-08-04T21:28:11.020Z,24.10
2022-08-04T21:30:52.409Z,24.00
2022-08-04T21:33:22.123Z,23.60
2022-08-04T21:35:54.376Z,23.70
2022-08-04T21:38:28.297Z,23.70
2022-08-04T21:41:01.930Z,23.70
2022-08-04T21:43:42.354Z,23.80
2022-08-04T21:46:11.372Z,23.80
2022-08-04T21:48:42.444Z,23.60
2022-08-04T21:51:21.750Z,23.40
2022-08-04T21:54:06.721Z,23.30
2022-08-04T21:56:35.067Z,23.30
2022-08-04T21:59:08.748Z,23.50
2022-08-04T22:01:51.650Z,23.80
2022-08-04T22:04:20.736Z,23.40
2022-08-04T22:06:51.920Z,23.50
2022-08-04T22:09:21.961Z,23.60
2022-08-04T22:11:51.850Z,23.50
2022-08-04T22:14:27.522Z,23.60
2022-08-04T22:16:57.811Z,23.60
2022-08-04T22:19:40.265Z,23.60
2022-08-04T22:22:26.215Z,23.50
2022-08-04T22:24:58.862Z,23.40
2022-08-04T22:27:55.372Z,23.50
2022-08-04T22:30:24.026Z,23.80
2022-08-04T22:32:52.173Z,24.00
2022-08-04T22:35:36.336Z,23.90
2022-08-04T22:38:26.785Z,23.70
2022-08-04T22:41:00.177Z,23.30
2022-08-04T22:43:33.499Z,23.20
2022-08-04T22:46:07.301Z,23.00
2022-08-04T22:48:36.762Z,23.30
2022-08-04T22:51:06.085Z,23.70
2022-08-04T22:53:36.659Z,23.90
2022-08-04T22:56:09.679Z,23.60
2022-08-04T22:58:40.363Z,23.40
2022-08-04T23:01:08.708Z,23.10
2022-08-04T23:03:38.656Z,22.80
2022-08-04T23:06:10.788Z,22.70
2022-08-04T23:08:43.345Z,22.80
2022-08-04T23:11:15.067Z,22.60
2022-08-04T23:13:43.070Z,22.40
2022-08-04T23:16:11.294Z,22.40
2022-08-04T23:18:42.235Z,22.40
2022-08-04T23:21:13.997Z,22.30
2022-08-04T23:23:45.636Z,22.30
2022-08-04T23:26:27.938Z,22.20
2022-08-04T23:28:56.333Z,22.30
2022-08-04T23:31:24.895Z,22.80
2022-08-04T23:34:08.559Z,22.80
2022-08-04T23:36:36.539Z,23.10
2022-08-04T23:39:06.617Z,22.90
2022-08-04T23:41:53.739Z,22.50
2022-08-04T23:44:24.888Z,22.40
2022-08-04T23:46:59.369Z,22.40
2022-08-04T23:49:44.453Z,22.40
2022-08-04T23:52:23.348Z,22.50
2022-08-04T23:54:59.725Z,22.80
2022-08-04T23:57:30.922Z,22.80
